首页
METAR-TAF:

METAR-TAF

机场 :

威靈頓國際機場

惠灵顿, 新西兰

纬度: 41-20S, 经度: 174-48E, 海拔: 12米

当前天气观测

该预报发布于26分钟前的18:00 UTC
风速4节,风向,在东南西南之间变化
温度 9°C
湿度 81%
气压 1012 hPa
能见度10公里或以上

METAR: NZWN 061800Z AUTO 17004KT 140V230 9999 BKN022/// 09/06 Q1012 NOSIG

时间: 06:26 (18:26 UTC)

预报

该预报发布于1小时和24分钟前的17:02 UTC
预报有效从06日的 18点(UTC)到 07日的 18点(UTC)
风速10节,风向
能见度10公里或以上
少量云层高于1500英尺
多云层高于2500英尺
小阵雨
从 06日的 2100点(UTC)
风速5节,风向
能见度10公里或以上
少量云层高于4000英尺
成为
从 06日的 22点(UTC)到 07日的 00点(UTC)
风速15节,风向
成为
从 07日的 10点(UTC)到 07日的 12点(UTC)
风速5节,风向

TAF: NZWN 061702Z 0618/0718 18010KT 9999 -SHRA FEW015 BKN025 FM062100 36005KT 9999 FEW040 BECMG 0622/0700 35015KT BECMG 0710/0712 35005KT

超过4000个机场的气象观测和天气预报(METAR&TAF报告)。

可查询的气象台以黄色和红色小点在地图上表示。

将鼠标移到小点上方,可查看气象台名称。

然后点击查看天气观测和预报。

如需切换地图:点击带黑十字的绿色按钮放大地图;点击带横线的绿色按钮缩小地图;或者点击绿色箭头查看邻近地区的地图。


METAR-TAF: